Deer Park, WA

8:24 AM PDT on October 25, 2014 (GMT -0700)
Deer Park | Change Station
CLOSE
Current Station
Airport
Location: Deer Park,
Elevation: 2205 ft
Nearby Weather Stations

Elev 2205 ft 47.97 °N, 117.42 °W | Updated 31 minutes ago

Clear
Clear
48 °F
Feels Like 48 °F
N
14
Wind Variable Wind from NNE

Today
High -- | Low -- °F
--% Chance of Precip.
Yesterday
High -- | Low -- °F
Precip. -- in
7:24 AM 5:42 PM
Waxing Crescent, 3% visible
Pressure 29.73 in
Visibility 10.0 miles
Clouds Clear
Dew Point 39 °F
Humidity 71%
Rainfall 0.00 in
Snow Depth 2 in
UV 0 out of 12
Pollen 1.50 out of 12
PM2.5 Moderate
Flu Activity Sporadic
METAR KDEW 251453Z AUTO 03012KT 10SM CLR 09/04 A2972 RMK AO2 SLP068 T00890039 58024

More Conditions Fewer Conditions

Pressure 29.73 in
Visibility 10.0 miles
Clouds Clear
Dew Point 39 °F
Humidity 71%
Rainfall 0.00 in
Snow Depth 2 in
UV 0 out of 12
Pollen 1.50 out of 12
PM2.5 Moderate
Flu Activity Sporadic
METAR KDEW 251453Z AUTO 03012KT 10SM CLR 09/04 A2972 RMK AO2 SLP068 T00890039 58024

More Conditions Fewer Conditions

10-Day Weather Forecast

Almanac

Astronomy

Oct. 25, 2014 Rise Set
Actual Time 7:24 AM PDT 5:42 PM PDT
Civil Twilight 6:52 AM PDT 6:14 PM PDT
Nautical Twilight 6:15 AM PDT 6:50 PM PDT
Astronomical Twilight 5:39 AM PDT 7:26 PM PDT
Moon 9:13 AM PDT 7:02 PM PDT
Length of Visible Light 11h 22m
Length of Day
10h 18m
Tomorrow will be 3m 14s shorter.
Waxing Crescent, 3% of the Moon is Illuminated
Today
Waxing Crescent
Oct 30
First Quarter
Nov 6
Full
Nov 14
Last Quarter
Nov 22
New

Today's Extremes

State Highs State Lows

Community

WunderPhotos

Upload Photos

1,764,876 photos uploaded!

Nearby

Air Quality

  Air Quality AQ Index Pollutant
Yesterday Good
PM10
Current Moderate
PM2.5
Saturday Good
PM10
Saturday Good
CO
Sunday Good
PM10
Sunday Good
CO
Monday Good
PM10
Monday Good
CO

Snow Depth

Station Depth Elevation
Quartz Peak 2 in 4700 ft
Bunchgrass Meadow 0 in 5000 ft
Moses Mountain 0 in 5300 ft
Sourdough Gulch 0 in 4000 ft
Spruce Springs 0 in 5700 ft

Earthquake Activity

City Distance Mag. Time & Date
No recent earthquake activity has been reported nearby.
Minimum magnitude displayed is 2.5.

Coastal Water Temperatures

Place Temperature
No Stations Reporting

Nearby Weather Stations